Time;durP1;ratioP1;P1;durP2;ratioP2;P2;SDS_P1;SDS_P2;PMS_P1;PMS_P2;Temp;Humidity;BMP_temperature;BMP_pressure;BME280_temperature;BME280_humidity;BME280_pressure;Samples;Min_cycle;Max_cycle;Signal;HPM_P1;HPM_P2
2022/10/15 00:04:56;;;;;;;;;;;;;;;12.10;100.00;95276.13;10550026;28;2311;-73
2022/10/15 00:09:59;;;;;;;;;;;;;;;12.07;100.00;95266.72;10555751;28;2060;-74
2022/10/15 00:15:04;;;;;;;;;;;;;;;12.07;100.00;95265.94;10555873;28;2314;-73
2022/10/15 00:20:09;;;;;;;;;;;;;;;12.05;100.00;95260.03;10532665;28;2328;-74
2022/10/15 00:25:13;;;;;;;;;;;;;;;12.03;100.00;95267.63;10551868;28;2345;-73
2022/10/15 00:30:17;;;;;;;;;;;;;;;12.03;100.00;95257.66;10525260;28;2346;-72
2022/10/15 00:35:20;;;;;;;;;;;;;;;12.02;100.00;95257.91;10547623;28;2458;-73
2022/10/15 00:40:23;;;;;;;;;;;;;;;12.00;100.00;95236.69;10544510;28;2379;-76
2022/10/15 00:45:27;;;;;;;;;;;;;;;11.99;100.00;95245.06;10554893;28;2341;-76
2022/10/15 00:50:30;;;;;;;;;;;;;;;11.97;100.00;95233.78;10554102;28;2099;-75
2022/10/15 00:55:33;;;;;;;;;;;;;;;11.97;100.00;95223.00;10547697;28;2468;-75
2022/10/15 01:00:37;;;;;;;;;;;;;;;11.94;100.00;95215.50;10551036;28;2273;-76
2022/10/15 01:05:40;;;;;;;;;;;;;;;11.90;100.00;95210.72;10546960;28;2327;-76
2022/10/15 01:10:44;;;;;;;;;;;;;;;11.94;100.00;95204.72;10556531;28;2331;-75
2022/10/15 01:15:48;;;;;;;;;;;;;;;11.90;100.00;95199.16;10545022;28;2458;-75
2022/10/15 01:20:51;;;;;;;;;;;;;;;11.88;100.00;95199.44;10546478;28;2279;-76
2022/10/15 01:25:54;;;;;;;;;;;;;;;11.91;100.00;95198.06;10550108;28;2321;-76
2022/10/15 01:30:57;;;;;;;;;;;;;;;11.87;100.00;95195.16;10544400;28;2358;-75
2022/10/15 01:36:01;;;;;;;;;;;;;;;11.87;100.00;95184.38;10560175;28;2284;-76
2022/10/15 01:41:08;;;;;;;;;;;;;;;11.96;100.00;95181.00;10542041;28;2640;-74
2022/10/15 01:46:11;;;;;;;;;;;;;;;11.93;100.00;95178.91;10539678;28;2365;-74
2022/10/15 01:51:15;;;;;;;;;;;;;;;11.94;100.00;95169.72;10549892;28;2290;-73
2022/10/15 01:56:18;;;;;;;;;;;;;;;11.88;100.00;95171.69;10554022;28;2440;-74
2022/10/15 02:01:21;;;;;;;;;;;;;;;11.85;100.00;95165.03;10555812;28;2420;-73
2022/10/15 02:06:25;;;;;;;;;;;;;;;11.88;100.00;95161.72;10558214;28;2340;-73
2022/10/15 02:11:31;;;;;;;;;;;;;;;11.90;100.00;95159.56;10549800;28;2289;-73
2022/10/15 02:16:34;;;;;;;;;;;;;;;11.89;100.00;95157.94;10562779;28;2699;-73
2022/10/15 02:21:38;;;;;;;;;;;;;;;11.93;100.00;95147.38;10546926;28;2369;-74
2022/10/15 02:26:41;;;;;;;;;;;;;;;11.89;100.00;95154.44;10549387;28;2010;-77
2022/10/15 02:31:44;;;;;;;;;;;;;;;11.87;100.00;95146.66;10546465;28;2291;-73
2022/10/15 02:36:48;;;;;;;;;;;;;;;11.88;100.00;95142.06;10545415;28;2317;-74
2022/10/15 02:41:51;;;;;;;;;;;;;;;11.88;100.00;95142.06;10547812;28;2348;-73
2022/10/15 02:46:54;;;;;;;;;;;;;;;11.87;100.00;95135.09;10548770;28;2131;-75
2022/10/15 02:51:58;;;;;;;;;;;;;;;11.88;100.00;95137.47;10545721;28;2379;-75
2022/10/15 02:57:01;;;;;;;;;;;;;;;11.92;100.00;95131.53;10553960;28;2344;-73
2022/10/15 03:02:04;;;;;;;;;;;;;;;11.92;100.00;95128.81;10551915;28;2061;-74
2022/10/15 03:07:08;;;;;;;;;;;;;;;12.01;100.00;95121.66;10542468;28;2326;-72
2022/10/15 03:12:11;;;;;;;;;;;;;;;12.03;100.00;95120.25;10544975;28;2335;-73
2022/10/15 03:17:14;;;;;;;;;;;;;;;12.06;100.00;95126.94;10545460;28;2335;-73
2022/10/15 03:22:17;;;;;;;;;;;;;;;12.10;100.00;95125.25;10541559;28;2370;-73
2022/10/15 03:27:21;;;;;;;;;;;;;;;12.08;100.00;95130.91;10539134;28;2326;-72
2022/10/15 03:32:24;;;;;;;;;;;;;;;12.12;100.00;95131.13;10544127;28;2344;-72
2022/10/15 03:37:28;;;;;;;;;;;;;;;12.12;100.00;95128.44;10544737;28;2288;-73
2022/10/15 03:42:31;;;;;;;;;;;;;;;12.11;100.00;95124.16;10544592;28;2473;-73
2022/10/15 03:47:34;;;;;;;;;;;;;;;12.18;100.00;95130.75;10540513;28;2260;-74
2022/10/15 03:52:37;;;;;;;;;;;;;;;12.22;100.00;95124.78;10546910;28;2288;-73
2022/10/15 03:57:41;;;;;;;;;;;;;;;12.18;100.00;95129.94;10545814;28;2283;-72
2022/10/15 04:02:44;;;;;;;;;;;;;;;12.23;100.00;95121.78;10555249;28;2293;-73
2022/10/15 04:07:47;;;;;;;;;;;;;;;12.24;100.00;95127.94;10553971;28;2132;-73
2022/10/15 04:12:50;;;;;;;;;;;;;;;12.27;100.00;95121.94;10557585;28;2346;-75
2022/10/15 04:17:54;;;;;;;;;;;;;;;12.27;100.00;95130.81;10552925;28;2304;-73
2022/10/15 04:22:57;;;;;;;;;;;;;;;12.29;100.00;95119.78;10539592;28;2344;-72
2022/10/15 04:28:01;;;;;;;;;;;;;;;12.31;100.00;95129.16;10555436;28;2286;-72
2022/10/15 04:33:04;;;;;;;;;;;;;;;12.32;100.00;95125.34;10555440;28;2400;-73
2022/10/15 04:38:07;;;;;;;;;;;;;;;12.36;100.00;95129.06;10546801;28;2069;-75
2022/10/15 04:43:11;;;;;;;;;;;;;;;12.38;100.00;95126.84;10548976;28;1986;-73
2022/10/15 04:48:14;;;;;;;;;;;;;;;12.47;100.00;95128.81;10551266;28;2169;-73
2022/10/15 04:53:17;;;;;;;;;;;;;;;12.49;100.00;95132.03;10564799;28;2296;-74
2022/10/15 04:58:20;;;;;;;;;;;;;;;12.56;100.00;95132.44;10556084;28;2389;-73
2022/10/15 05:03:24;;;;;;;;;;;;;;;12.63;100.00;95124.72;10552850;28;2379;-73
2022/10/15 05:08:27;;;;;;;;;;;;;;;12.71;100.00;95135.59;10551381;28;2261;-75
2022/10/15 05:13:30;;;;;;;;;;;;;;;12.79;100.00;95139.50;10561814;28;2336;-75
2022/10/15 05:18:34;;;;;;;;;;;;;;;12.83;100.00;95148.56;10556959;28;2362;-74
2022/10/15 05:23:37;;;;;;;;;;;;;;;12.91;100.00;95139.75;10549626;28;2479;-75
2022/10/15 05:28:41;;;;;;;;;;;;;;;12.92;100.00;95143.25;10543180;28;2536;-77
2022/10/15 05:33:44;;;;;;;;;;;;;;;12.95;100.00;95151.53;10556240;28;2120;-74
2022/10/15 05:38:47;;;;;;;;;;;;;;;12.96;100.00;95150.44;10547932;28;2132;-74
2022/10/15 05:43:50;;;;;;;;;;;;;;;13.04;100.00;95175.09;10540532;28;2649;-77
2022/10/15 05:48:54;;;;;;;;;;;;;;;13.05;100.00;95174.00;10546904;28;2606;-77
2022/10/15 05:53:57;;;;;;;;;;;;;;;13.07;100.00;95179.88;10545730;28;2595;-79
2022/10/15 05:59:05;;;;;;;;;;;;;;;13.10;100.00;95184.66;10569312;27;2000;-74
2022/10/15 06:04:11;;;;;;;;;;;;;;;13.13;100.00;95186.78;10552767;28;2669;-76
2022/10/15 06:09:14;;;;;;;;;;;;;;;13.14;100.00;95199.16;10544312;28;2706;-75
2022/10/15 06:14:17;;;;;;;;;;;;;;;13.24;100.00;95194.38;10555921;28;2035;-73
2022/10/15 06:19:21;;;;;;;;;;;;;;;13.23;100.00;95208.97;10556253;28;2068;-73
2022/10/15 06:24:25;;;;;;;;;;;;;;;13.24;100.00;95199.78;10552797;28;2562;-71
2022/10/15 06:29:28;;;;;;;;;;;;;;;13.25;100.00;95222.16;10551862;28;2632;-73
2022/10/15 06:34:31;;;;;;;;;;;;;;;13.25;100.00;95232.97;10558359;28;2056;-74
2022/10/15 06:39:35;;;;;;;;;;;;;;;13.27;100.00;95241.53;10555741;28;2598;-74
2022/10/15 06:44:39;;;;;;;;;;;;;;;13.32;100.00;95246.84;10545362;28;2975;-74
2022/10/15 06:49:42;;;;;;;;;;;;;;;13.35;100.00;95262.41;10544485;28;2542;-73
2022/10/15 06:54:45;;;;;;;;;;;;;;;13.43;100.00;95261.72;10551506;28;2531;-73
2022/10/15 06:59:48;;;;;;;;;;;;;;;13.48;100.00;95276.97;10562952;28;2640;-74
2022/10/15 07:04:52;;;;;;;;;;;;;;;13.59;100.00;95274.88;10521258;28;2621;-73
2022/10/15 07:09:55;;;;;;;;;;;;;;;13.70;100.00;95282.44;10541062;28;2645;-73
2022/10/15 07:14:58;;;;;;;;;;;;;;;13.74;100.00;95288.00;10535768;28;2009;-73
2022/10/15 07:20:03;;;;;;;;;;;;;;;13.77;100.00;95298.22;10527420;28;3004;-73
2022/10/15 07:25:06;;;;;;;;;;;;;;;13.73;100.00;95308.81;10537785;28;2675;-73
2022/10/15 07:30:10;;;;;;;;;;;;;;;13.91;100.00;95315.19;10547608;28;2712;-72
2022/10/15 07:35:23;;;;;;;;;;;;;;;14.16;100.00;95321.09;10544172;28;2974;-73
2022/10/15 07:40:37;;;;;;;;;;;;;;;14.14;100.00;95324.13;10536321;28;2042;-75
2022/10/15 07:45:50;;;;;;;;;;;;;;;14.21;100.00;95323.69;10545216;28;2055;-77
2022/10/15 07:51:04;;;;;;;;;;;;;;;14.13;100.00;95337.94;10547693;28;2055;-72
2022/10/15 07:56:07;;;;;;;;;;;14.90;99.90;;;13.86;100.00;95349.63;10527549;28;137174;-72
2022/10/15 08:01:20;;;;;;;;;;;14.90;99.90;;;13.95;100.00;95339.69;10543764;28;2602;-72
2022/10/15 08:06:23;;;;;;;;;;;14.80;99.90;;;13.82;100.00;95346.75;10544204;28;2630;-74
2022/10/15 08:11:36;;;;;;;;;;;14.80;99.90;;;13.83;100.00;95348.34;10547704;28;2014;-68
2022/10/15 08:16:49;;;;;;;;;;;14.80;99.90;;;13.87;100.00;95357.44;10538969;28;2605;-68
2022/10/15 08:21:52;;;;;;;;;;;14.80;99.90;;;13.80;100.00;95370.53;10539854;28;2607;-68
2022/10/15 08:27:05;;;;;;;;;;;14.70;99.90;;;13.91;100.00;95369.22;10539286;28;2765;-68
2022/10/15 08:32:17;;;;;;;;;;;14.80;99.90;;;13.91;100.00;95380.03;10544146;28;2536;-69
2022/10/15 08:37:30;;;;;;;;;;;14.80;99.90;;;13.95;100.00;95397.25;10537596;28;2629;-68
2022/10/15 08:42:43;;;;;;;;;;;14.90;99.90;;;14.08;100.00;95398.31;10536961;28;2050;-69
2022/10/15 08:47:55;;;;;;;;;;;15.00;99.90;;;14.11;100.00;95405.00;10531590;28;2554;-68
2022/10/15 08:53:08;;;;;;;;;;;15.10;99.90;;;13.93;100.00;95423.78;10542723;28;2601;-68
2022/10/15 08:58:12;;;;;;;;;;;15.00;99.90;;;13.93;100.00;95410.25;10553394;28;2078;-69
2022/10/15 09:03:19;;;;;;;;;;;14.90;99.90;;;13.96;100.00;95423.16;10534698;28;2059;-71
2022/10/15 09:08:22;;;;;;;;;;;14.90;99.90;;;13.92;100.00;95422.16;10551475;28;2545;-70
2022/10/15 09:13:25;;;;;;;;;;;14.90;99.90;;;13.95;100.00;95424.25;10552733;28;2718;-73
2022/10/15 09:18:31;;;;;;;;;;;14.90;99.90;;;14.20;100.00;95424.81;10547604;28;2956;-73
2022/10/15 09:23:34;;;;;;;;;;;15.00;99.90;;;14.52;100.00;95416.50;10535633;28;2082;-71
2022/10/15 09:28:37;;;;;;;;;;;15.30;99.90;;;14.81;100.00;95412.56;10524158;28;2593;-70
2022/10/15 09:33:50;;;;;;;;;;;15.50;99.90;;;15.36;100.00;95417.63;10541163;28;2162;-70
2022/10/15 09:38:55;;;;;;;;;;;15.90;99.90;;;15.61;100.00;95414.22;10543047;28;1991;-70
2022/10/15 09:44:10;;;;;;;;;;;16.20;99.90;;;15.70;100.00;95416.19;10552828;28;2657;-72
2022/10/15 09:49:17;;;;;;;;;;;16.60;99.90;;;15.90;100.00;95418.31;10543325;28;2506;-69
2022/10/15 09:54:20;;;;;;;;;;;16.60;99.90;;;16.17;100.00;95420.75;10552127;28;2600;-70
2022/10/15 09:59:23;;;;;;;;;;;16.80;99.90;;;16.43;100.00;95417.25;10537824;28;2481;-69
2022/10/15 10:04:26;;;;;;;;;;;17.10;99.90;;;16.71;100.00;95415.03;10546239;28;2021;-70
2022/10/15 10:09:33;;;;;;;;;;;17.40;99.90;;;17.06;100.00;95418.50;10539661;28;2671;-68
2022/10/15 10:14:36;;;;;;;;;;;17.70;99.90;;;17.43;100.00;95403.38;10545835;28;2012;-69
2022/10/15 10:19:39;;;;;;;;;;;17.90;99.90;;;17.69;100.00;95400.53;10554133;28;2600;-69
2022/10/15 10:24:42;;;;;;;;;;;18.40;99.90;;;17.97;100.00;95408.25;10560732;28;2563;-71
2022/10/15 10:29:45;;;;;;;;;;;18.50;99.90;;;18.19;100.00;95409.84;10560367;28;2562;-68
2022/10/15 10:34:47;;;;;;;;;;;18.70;99.90;;;18.18;100.00;95403.59;10539970;28;2587;-68
2022/10/15 10:39:57;;;;;;;;;;;18.80;99.90;;;18.15;100.00;95396.13;10530510;28;2548;-68
2022/10/15 10:45:00;;;;;;;;;;;18.90;99.90;;;18.21;100.00;95402.97;10550165;28;2643;-68
2022/10/15 10:50:03;;;;;;;;;;;19.00;99.90;;;18.73;100.00;95399.84;10545211;28;2038;-69
2022/10/15 10:55:06;;;;;;;;;;;19.20;99.90;;;18.49;100.00;95391.53;10551459;28;2082;-70
2022/10/15 11:00:09;;;;;;;;;;;19.30;99.90;;;18.14;100.00;95393.75;10544707;28;2561;-69
2022/10/15 11:05:11;;;;;;;;;;;19.00;99.90;;;17.94;100.00;95377.06;10552738;28;2043;-68
2022/10/15 11:10:14;;;;;;;;;;;18.80;99.90;;;18.13;100.00;95373.09;10548301;28;2579;-69
2022/10/15 11:15:17;;;;;;;;;;;19.00;99.90;;;18.59;100.00;95388.41;10545633;28;2597;-69
2022/10/15 11:20:20;;;;;;;;;;;19.10;99.90;;;19.17;100.00;95386.59;10556363;27;2535;-69
2022/10/15 11:25:39;;;;;;;;;;;;;;;19.11;100.00;95386.00;10549039;28;2559;-69
2022/10/15 11:30:42;;;;;;;;;;;19.80;99.90;;;18.64;100.00;95377.34;10549784;28;2602;-69
2022/10/15 11:35:45;;;;;;;;;;;19.70;99.90;;;18.34;100.00;95393.75;10549136;28;2635;-70
2022/10/15 11:40:56;;;;;;;;;;;19.40;99.90;;;18.75;100.00;95386.69;10547635;28;3377;-68
2022/10/15 11:45:59;;;;;;;;;;;19.50;99.90;;;18.51;100.00;95383.81;10555837;28;2083;-69
2022/10/15 11:51:02;;;;;;;;;;;19.40;99.90;;;18.79;100.00;95384.91;10554148;28;2452;-69
2022/10/15 11:56:04;;;;;;;;;;;19.40;99.90;;;18.83;100.00;95374.94;10538743;28;2651;-69
2022/10/15 12:01:07;;;;;;;;;;;19.60;99.90;;;18.66;100.00;95371.53;10543624;28;2575;-68
2022/10/15 12:06:10;;;;;;;;;;;19.70;99.90;;;18.71;100.00;95374.09;10549278;28;2036;-69
2022/10/15 12:11:13;;;;;;;;;;;19.60;99.90;;;18.59;100.00;95381.03;10542469;28;2615;-69
2022/10/15 12:16:15;;;;;;;;;;;19.50;99.90;;;18.81;100.00;95371.72;10546468;28;2680;-69
2022/10/15 12:21:18;;;;;;;;;;;19.50;99.90;;;19.03;100.00;95383.38;10546313;28;2587;-69
2022/10/15 12:26:21;;;;;;;;;;;19.60;99.90;;;18.93;100.00;95379.16;10545655;28;2589;-68
2022/10/15 12:31:24;;;;;;;;;;;19.70;99.90;;;18.93;100.00;95387.31;10550436;28;2669;-69
2022/10/15 12:36:27;;;;;;;;;;;19.70;99.90;;;18.99;100.00;95377.81;10551737;28;2640;-69
2022/10/15 12:41:30;;;;;;;;;;;19.70;99.90;;;18.71;100.00;95374.88;10527271;28;2028;-69
2022/10/15 12:46:33;;;;;;;;;;;19.60;99.90;;;18.77;100.00;95365.38;10560134;28;2697;-69
2022/10/15 12:51:36;;;;;;;;;;;19.70;99.90;;;18.66;100.00;95364.16;10542171;28;2138;-71
2022/10/15 12:56:40;;;;;;;;;;;19.50;99.90;;;18.50;100.00;95355.03;10557590;28;2699;-76
2022/10/15 13:01:43;;;;;;;;;;;19.50;99.90;;;18.39;100.00;95354.66;10552092;28;2582;-75
2022/10/15 13:06:46;;;;;;;;;;;19.30;99.90;;;18.35;100.00;95354.50;10550048;28;2093;-70
2022/10/15 13:11:48;;;;;;;;;;;19.20;99.90;;;17.97;100.00;95360.09;10554803;28;2828;-75
2022/10/15 13:16:56;;;;;;;;;;;19.10;99.90;;;17.97;100.00;95360.09;10548936;28;2018;-71
2022/10/15 13:21:59;;;;;;;;;;;19.00;99.90;;;18.35;100.00;95364.59;10540225;28;2749;-75
2022/10/15 13:27:02;;;;;;;;;;;19.00;99.90;;;18.92;100.00;95374.84;10539969;28;2627;-70
2022/10/15 13:32:05;;;;;;;;;;;19.40;99.90;;;19.07;100.00;95365.22;10539851;28;2022;-72
2022/10/15 13:37:07;;;;;;;;;;;19.70;99.90;;;19.15;100.00;95358.91;10542520;28;2665;-70
2022/10/15 13:42:10;;;;;;;;;;;19.80;99.90;;;18.94;100.00;95366.31;10553243;28;2788;-69
2022/10/15 13:47:13;;;;;;;;;;;19.80;99.90;;;18.86;100.00;95373.44;10551437;28;2115;-69
2022/10/15 13:52:15;;;;;;;;;;;19.70;99.90;;;18.94;100.00;95369.03;10555583;28;2497;-68
2022/10/15 13:57:18;;;;;;;;;;;19.70;99.90;;;18.66;100.00;95361.44;10557555;28;2560;-69
2022/10/15 14:02:21;;;;;;;;;;;19.60;99.90;;;18.80;100.00;95353.81;10534364;28;2631;-69
2022/10/15 14:07:25;;;;;;;;;;;19.50;99.90;;;18.93;100.00;95353.84;10551437;28;2500;-69
2022/10/15 14:12:29;;;;;;;;;;;19.70;99.90;;;19.15;100.00;95353.44;10552923;28;2528;-69
2022/10/15 14:17:32;;;;;;;;;;;19.80;99.90;;;19.13;100.00;95344.78;10550737;28;2103;-69
2022/10/15 14:22:35;;;;;;;;;;;19.80;99.90;;;18.92;100.00;95349.53;10551098;28;2584;-69
2022/10/15 14:27:37;;;;;;;;;;;19.80;99.90;;;18.82;100.00;95348.81;10548994;28;2577;-70
2022/10/15 14:32:40;;;;;;;;;;;19.80;99.90;;;18.82;100.00;95340.63;10526977;28;2569;-68
2022/10/15 14:37:43;;;;;;;;;;;19.70;99.90;;;18.87;100.00;95345.88;10551363;28;2728;-68
2022/10/15 14:42:46;;;;;;;;;;;19.70;99.90;;;18.93;100.00;95346.47;10545466;28;2610;-69
2022/10/15 14:47:49;;;;;;;;;;;19.70;99.90;;;18.92;100.00;95350.31;10533830;28;2581;-69
2022/10/15 14:52:52;;;;;;;;;;;19.70;99.90;;;18.85;100.00;95360.97;10549044;28;2562;-71
2022/10/15 14:57:54;;;;;;;;;;;19.70;99.90;;;18.70;100.00;95364.31;10544808;28;2655;-69
2022/10/15 15:02:58;;;;;;;;;;;19.50;99.90;;;18.68;100.00;95367.38;10546904;28;2605;-70
2022/10/15 15:08:01;;;;;;;;;;;19.50;99.90;;;18.25;100.00;95360.34;10525962;28;2876;-69
2022/10/15 15:13:10;;;;;;;;;;;19.30;99.90;;;17.91;100.00;95363.31;10549507;28;2650;-68
2022/10/15 15:18:13;;;;;;;;;;;19.10;99.90;;;17.69;100.00;95354.31;10548593;28;2625;-77
2022/10/15 15:23:16;;;;;;;;;;;18.80;99.90;;;17.36;100.00;95361.50;10543943;28;2610;-78
2022/10/15 15:28:19;;;;;;;;;;;18.60;99.90;;;17.34;100.00;95363.75;10545135;28;2700;-77
2022/10/15 15:33:22;;;;;;;;;;;18.40;99.90;;;17.38;100.00;95357.34;10545698;28;2657;-79
2022/10/15 15:38:29;;;;;;;;;;;18.30;99.90;;;17.40;100.00;95367.91;10540255;28;2641;-80
2022/10/15 15:43:32;;;;;;;;;;;18.30;99.90;;;17.48;100.00;95372.47;10546309;28;2623;-78
2022/10/15 15:48:35;;;;;;;;;;;18.30;99.90;;;17.22;100.00;95383.47;10553188;28;2140;-80
2022/10/15 15:53:38;;;;;;;;;;;18.30;99.90;;;17.29;100.00;95381.03;10539524;28;2086;-80
2022/10/15 15:58:41;;;;;;;;;;;18.20;99.90;;;17.25;100.00;95380.91;10543584;28;2592;-82
2022/10/15 16:03:44;;;;;;;;;;;18.20;99.90;;;17.14;100.00;95387.00;10550421;28;2602;-78
2022/10/15 16:08:47;;;;;;;;;;;18.10;99.90;;;17.01;100.00;95377.94;10549182;27;2018;-78
2022/10/15 16:13:50;;;;;;;;;;;18.00;99.90;;;16.99;100.00;95383.69;10543842;27;2629;-77
2022/10/15 16:18:54;;;;;;;;;;;18.00;99.90;;;16.81;100.00;95384.06;10553542;28;2133;-76
2022/10/15 16:23:57;;;;;;;;;;;17.80;99.90;;;16.78;100.00;95392.84;10541167;28;2624;-77
2022/10/15 16:29:00;;;;;;;;;;;17.80;99.90;;;16.67;100.00;95400.50;10542486;28;2090;-78
2022/10/15 16:34:02;;;;;;;;;;;17.70;99.90;;;16.63;100.00;95411.19;10548358;27;2091;-79
2022/10/15 16:39:05;;;;;;;;;;;17.60;99.90;;;16.52;100.00;95409.91;10572194;28;2644;-77
2022/10/15 16:44:08;;;;;;;;;;;17.60;99.90;;;16.49;100.00;95413.28;10567694;27;2608;-78
2022/10/15 16:49:11;;;;;;;;;;;17.50;99.90;;;16.31;100.00;95412.47;10563834;28;2066;-77
2022/10/15 16:54:14;;;;;;;;;;;17.40;99.90;;;16.07;100.00;95425.69;10538936;28;2630;-79
2022/10/15 16:59:17;;;;;;;;;;;17.30;99.90;;;15.77;100.00;95440.91;10536623;28;2626;-76
2022/10/15 17:04:20;;;;;;;;;;;17.00;99.90;;;15.45;100.00;95448.25;10535580;28;2651;-74
2022/10/15 17:09:23;;;;;;;;;;;16.80;99.90;;;15.42;100.00;95446.19;10541437;28;2562;-76
2022/10/15 17:14:26;;;;;;;;;;;16.60;99.90;;;15.46;100.00;95468.00;10533028;28;2376;-75
2022/10/15 17:19:29;;;;;;;;;;;16.60;99.90;;;15.64;100.00;95464.28;10521841;28;2607;-74
2022/10/15 17:24:35;;;;;;;;;;;16.60;99.90;;;15.63;100.00;95466.22;10536954;28;2551;-75
2022/10/15 17:29:39;;;;;;;;;;;16.70;99.90;;;15.69;100.00;95475.00;10546366;28;2661;-77
2022/10/15 17:34:42;;;;;;;;;;;16.70;99.90;;;15.48;100.00;95473.94;10545048;28;2559;-76
2022/10/15 17:39:45;;;;;;;;;;;16.60;99.90;;;15.31;100.00;95485.47;10545739;28;2562;-78
2022/10/15 17:44:48;;;;;;;;;;;16.50;99.90;;;15.25;100.00;95497.53;10540720;28;2060;-77
2022/10/15 17:49:50;;;;;;;;;;;16.40;99.90;;;15.29;100.00;95501.22;10554677;27;2547;-78
2022/10/15 17:54:53;;;;;;;;;;;16.30;99.90;;;15.50;100.00;95510.41;10546974;28;2574;-72
2022/10/15 17:59:56;;;;;;;;;;;16.40;99.90;;;15.54;100.00;95510.63;10532076;28;2398;-70
2022/10/15 18:04:59;;;;;;;;;;;16.40;99.90;;;15.48;100.00;95509.16;10545302;28;2273;-69
2022/10/15 18:10:02;;;;;;;;;;;16.50;99.90;;;15.48;100.00;95506.44;10539635;28;2059;-71
2022/10/15 18:15:05;;;;;;;;;;;16.50;99.90;;;15.38;100.00;95515.59;10546694;28;2032;-69
2022/10/15 18:20:08;;;;;;;;;;;16.40;99.90;;;15.40;100.00;95510.69;10551963;28;2640;-72
2022/10/15 18:25:10;;;;;;;;;;;16.40;99.90;;;15.48;100.00;95515.34;10530350;28;2691;-72
2022/10/15 18:30:14;;;;;;;;;;;16.40;99.90;;;15.48;100.00;95512.66;10532685;28;2535;-69
2022/10/15 18:35:18;;;;;;;;;;;16.50;99.90;;;15.50;100.00;95507.72;10539103;28;2539;-72
2022/10/15 18:40:21;;;;;;;;;;;16.40;99.90;;;15.50;100.00;95513.13;10536328;28;2029;-71
2022/10/15 18:45:24;;;;;;;;;;;16.50;99.90;;;15.47;100.00;95516.47;10532215;28;2481;-70
2022/10/15 18:50:27;;;;;;;;;;;16.40;99.90;;;15.44;100.00;95519.78;10536065;28;2666;-72
2022/10/15 18:55:33;;;;;;;;;;;16.40;99.90;;;15.53;100.00;95533.41;10518780;28;2586;-71
2022/10/15 19:00:36;;;;;;;;;;;16.40;99.90;;;15.59;100.00;95540.28;10513710;28;2530;-71
2022/10/15 19:05:39;;;;;;;;;;;16.50;99.90;;;15.59;100.00;95538.38;10540830;28;2570;-71
2022/10/15 19:10:42;;;;;;;;;;;16.50;99.90;;;15.51;100.00;95538.31;10537445;28;2653;-73
2022/10/15 19:15:45;;;;;;;;;;;16.50;99.90;;;15.45;100.00;95545.75;10539199;28;2749;-72
2022/10/15 19:20:48;;;;;;;;;;;16.40;99.90;;;15.47;100.00;95538.16;10532590;28;2542;-74
2022/10/15 19:25:51;;;;;;;;;;;16.40;99.90;;;15.31;100.00;95545.84;10535056;28;2059;-73
2022/10/15 19:30:54;;;;;;;;;;;16.40;99.90;;;14.87;100.00;95552.03;10531844;28;2560;-72
2022/10/15 19:35:56;;;;;;;;;;;16.20;99.90;;;14.75;100.00;95559.91;10530536;28;2577;-72
2022/10/15 19:40:59;;;;;;;;;;;16.00;99.90;;;14.72;100.00;95560.50;10535647;28;2702;-71
2022/10/15 19:46:02;;;;;;;;;;;15.90;99.90;;;14.60;100.00;95577.28;10550394;28;2546;-72
2022/10/15 19:51:06;;;;;;;;;;;15.70;99.90;;;14.67;100.00;95579.56;10557490;28;2102;-72
2022/10/15 19:56:09;;;;;;;;;;;15.70;99.90;;;14.62;100.00;95579.66;10530094;28;2611;-69
2022/10/15 20:01:18;;;;;;;;;;;15.70;99.90;;;14.56;100.00;95589.78;10522514;28;2726;-70
2022/10/15 20:06:21;;;;;;;;;;;15.70;99.90;;;14.65;100.00;95592.59;10549996;28;2579;-70
2022/10/15 20:11:25;;;;;;;;;;;15.70;99.90;;;14.57;100.00;95592.22;10540179;28;2617;-73
2022/10/15 20:16:28;;;;;;;;;;;15.60;99.90;;;14.60;100.00;95599.72;10538108;28;2275;-73
2022/10/15 20:21:35;;;;;;;;;;;15.60;99.90;;;14.69;100.00;95604.41;10544332;28;2611;-75
2022/10/15 20:26:37;;;;;;;;;;;15.70;99.90;;;14.74;100.00;95596.19;10543940;28;2607;-70
2022/10/15 20:31:40;;;;;;;;;;;15.70;99.90;;;14.72;100.00;95606.50;10539842;28;2624;-71
2022/10/15 20:36:48;;;;;;;;;;;15.70;99.90;;;14.52;100.00;95611.25;10542701;28;2680;-73
2022/10/15 20:41:51;;;;;;;;;;;15.70;99.90;;;14.28;100.00;95621.44;10553393;28;2058;-77
2022/10/15 20:46:54;;;;;;;;;;;15.50;99.90;;;13.99;100.00;95613.59;10550496;28;1980;-73
2022/10/15 20:52:03;;;;;;;;;;;15.30;99.90;;;13.93;100.00;95623.72;10552297;28;2066;-73
2022/10/15 20:57:07;;;;;;;;;;;15.10;99.90;;;13.81;100.00;95623.41;10563891;28;2563;-74
2022/10/15 21:02:10;;;;;;;;;;;15.00;99.90;;;13.67;100.00;95638.75;10565097;28;2154;-72
2022/10/15 21:07:13;;;;;;;;;;;14.90;99.90;;;13.58;100.00;95635.94;10566972;28;2543;-74
2022/10/15 21:12:17;;;;;;;;;;;14.80;99.90;;;13.53;100.00;95633.31;10565981;28;2586;-74
2022/10/15 21:17:19;;;;;;;;;;;14.70;99.90;;;13.47;100.00;95637.19;10576863;28;2673;-70
2022/10/15 21:22:22;;;;;;;;;;;14.70;99.90;;;13.42;100.00;95643.50;10572612;27;2703;-70
2022/10/15 21:27:25;;;;;;;;;;;14.60;99.90;;;13.38;100.00;95664.09;10557610;28;2099;-71
2022/10/15 21:32:29;;;;;;;;;;;14.50;99.90;;;13.39;100.00;95659.47;10563115;28;2614;-72
2022/10/15 21:37:31;;;;;;;;;;;14.50;99.90;;;13.29;100.00;95660.44;10557687;28;2055;-72
2022/10/15 21:42:34;;;;;;;;;;;14.50;99.90;;;13.21;100.00;95659.19;10565152;28;1990;-73
2022/10/15 21:47:37;;;;;;;;;;;14.40;99.90;;;13.17;100.00;95668.16;10553587;28;2643;-72
2022/10/15 21:52:40;;;;;;;;;;;14.30;99.90;;;13.12;100.00;95689.81;10558907;28;2018;-72
2022/10/15 21:57:43;;;;;;;;;;;14.30;99.90;;;13.01;100.00;95691.84;10561427;28;2966;-72
2022/10/15 22:02:45;;;;;;;;;;;14.20;99.90;;;12.96;100.00;95700.00;10555139;28;2566;-72
2022/10/15 22:07:48;;;;;;;;;;;14.10;99.90;;;13.01;100.00;95696.44;10529385;28;2116;-72
2022/10/15 22:12:52;;;;;;;;;;;14.10;99.90;;;13.04;100.00;95690.44;10551604;28;2302;-71
2022/10/15 22:17:55;;;;;;;;;;;14.10;99.90;;;12.98;100.00;95693.25;10556674;28;2586;-71
2022/10/15 22:22:57;;;;;;;;;;;14.10;99.90;;;13.01;100.00;95686.44;10540024;28;2602;-72
2022/10/15 22:28:01;;;;;;;;;;;14.10;99.90;;;12.87;100.00;95697.16;10554565;28;2558;-71
2022/10/15 22:33:04;;;;;;;;;;;14.10;99.90;;;12.78;100.00;95700.78;10553729;28;2601;-71
2022/10/15 22:38:10;;;;;;;;;;;14.00;99.90;;;12.75;100.00;95704.06;10553364;28;2023;-71
2022/10/15 22:43:13;;;;;;;;;;;13.90;99.90;;;12.64;100.00;95700.69;10544548;28;2583;-72
2022/10/15 22:48:16;;;;;;;;;;;13.80;99.90;;;12.63;100.00;95690.97;10551490;28;2554;-72
2022/10/15 22:53:18;;;;;;;;;;;13.70;99.90;;;12.52;100.00;95694.88;10550329;28;2552;-71
2022/10/15 22:58:21;;;;;;;;;;;14.00;99.90;;;12.63;100.00;95697.19;10547857;28;2602;-71
2022/10/15 23:03:24;;;;;;;;;;;13.70;99.90;;;12.52;100.00;95706.47;10540589;28;2610;-72
2022/10/15 23:08:28;;;;;;;;;;;13.70;99.90;;;12.43;100.00;95702.81;10540715;28;2043;-71
2022/10/15 23:13:32;;;;;;;;;;;13.60;99.90;;;12.40;100.00;95697.97;10540229;28;2719;-70
2022/10/15 23:18:35;;;;;;;;;;;13.60;99.90;;;12.35;100.00;95704.25;10549830;28;2621;-73
2022/10/15 23:23:38;;;;;;;;;;;13.50;99.90;;;12.31;100.00;95716.69;10546423;28;2637;-72
2022/10/15 23:28:40;;;;;;;;;;;13.50;99.90;;;12.25;100.00;95717.03;10543534;28;2546;-71
2022/10/15 23:33:44;;;;;;;;;;;13.40;99.90;;;12.26;100.00;95719.41;10546371;28;1980;-71
2022/10/15 23:38:47;;;;;;;;;;;13.40;99.90;;;12.12;100.00;95726.56;10550544;28;2047;-71
2022/10/15 23:43:50;;;;;;;;;;;13.40;99.90;;;12.11;100.00;95738.44;10547036;28;2076;-72
2022/10/15 23:48:53;;;;;;;;;;;13.30;99.90;;;12.09;100.00;95743.31;10546982;28;2557;-71
2022/10/15 23:53:56;;;;;;;;;;;13.30;99.90;;;12.01;100.00;95733.13;10524206;28;2797;-71
2022/10/15 23:58:59;;;;;;;;;;;13.20;99.90;;;12.03;100.00;95725.59;10546532;28;2184;-73
